• Join FlightAware (Why Join?)
  • Login
  • US Flag 
03:18AM EDT


 

Airport Tracker/Info


-or-


 

Live Flight TrackerFlight Track Log ✈ N5349M ✈ 09-Oct-2013 ✈ KLEX - KJWN

Flight Track Log - Related Links

Times and Time Zones

All times are in EDT time to prevent confusion due to time zone crossing. See the N5349M flight status page for this flight to view local times or setup timezone preferences in your user account.

Time Position Orientation Groundspeed Altitude Reporting Facility
EDT Latitude Longitude Course Direction KTS MPH feet Rate Location/Type
03:51PM 38.0169 -84.5325 223° Southwest 114 131 2,700  Level Indianapolis Center
03:52PM 37.9853 -84.5764 228° Southwest 142 163 3,400 600 Climbing Indianapolis Center
03:53PM 37.9547 -84.6128 223° Southwest 145 167 4,000 600 Climbing Indianapolis Center
03:54PM 37.9267 -84.6489 225° Southwest 146 168 4,700 600 Climbing Indianapolis Center
03:55PM 37.8537 -84.8343 224° Southwest  Level FlightAware Approximate
03:55PM 37.8994 -84.6867 228° Southwest 146 168 5,300  Level Indianapolis Center
03:56PM 37.8236 -84.8724 223° Southwest  Level Estimated
03:56PM 37.8733 -84.7200 225° Southwest 141 162 5,800  Level Indianapolis Center
03:57PM 37.8383 -84.7656 226° Southwest 146 168 6,000 60 Climbing Indianapolis Center
03:58PM 37.8081 -84.8067 227° Southwest 155 178 6,000  Level Indianapolis Center
03:59PM 37.7775 -84.8464 226° Southwest 157 181 6,000  Level Indianapolis Center
04:00PM 37.7467 -84.8878 227° Southwest 161 185 6,000  Level Indianapolis Center
04:01PM 37.7150 -84.9278 225° Southwest 161 185 6,000  Level Indianapolis Center
04:02PM 37.6803 -84.9756 227° Southwest 158 182 6,000  Level Indianapolis Center
04:03PM 37.6494 -85.0153 226° Southwest 158 182 6,000  Level Indianapolis Center
04:04PM 37.6183 -85.0550 225° Southwest 158 182 6,100  Climbing Indianapolis Center
04:05PM 37.5883 -85.0947 226° Southwest 157 181 6,100 -60 Level Indianapolis Center
04:06PM 37.5578 -85.1353 226° Southwest 158 182 6,000  Descending Indianapolis Center
04:07PM 37.5228 -85.1811 226° Southwest 156 180 6,100  Climbing Indianapolis Center
04:08PM 37.4922 -85.2203 225° Southwest 156 180 6,100  Level Indianapolis Center
04:09PM 37.4614 -85.2603 226° Southwest 158 182 6,100  Level Indianapolis Center
04:10PM 37.4311 -85.3000 226° Southwest 158 182 6,100  Level Indianapolis Center
04:11PM 37.4006 -85.3419 227° Southwest 160 184 6,100  Level Indianapolis Center
04:12PM 37.3683 -85.3811 224° Southwest 161 185 6,100 -60 Level Indianapolis Center
04:14PM 37.3344 -85.4264 227° Southwest 154 177 6,000  Descending Indianapolis Center
04:15PM 37.3050 -85.4653 226° Southwest 155 178 6,100  Climbing Indianapolis Center
04:16PM 37.2744 -85.5033 225° Southwest 154 177 6,100  Level Indianapolis Center
04:17PM 37.2436 -85.5431 226° Southwest 152 175 6,100  Level Indianapolis Center
04:18PM 37.2147 -85.5800 226° Southwest 153 176 6,100 -60 Level Indianapolis Center
04:19PM 37.1839 -85.6189 225° Southwest 156 180 6,000  Descending Indianapolis Center
04:20PM 37.1497 -85.6650 227° Southwest 153 176 6,100  Climbing Indianapolis Center
04:21PM 37.1200 -85.7042 226° Southwest 153 176 6,100  Level Indianapolis Center
04:22PM 37.0892 -85.7406 223° Southwest 152 175 6,100  Level Indianapolis Center
04:23PM 37.0597 -85.7803 227° Southwest 153 176 6,100  Level Indianapolis Center
04:24PM 37.0308 -85.8192 227° Southwest 152 175 6,100  Level Indianapolis Center
04:25PM 37.0000 -85.8567 224° Southwest 152 175 6,100  Level Indianapolis Center
04:26PM 36.9703 -85.8953 226° Southwest 153 176 6,100  Level Indianapolis Center
04:27PM 36.9350 -85.9397 225° Southwest 153 176 6,100  Level Indianapolis Center
04:28PM 36.9058 -85.9772 226° Southwest 150 173 6,100  Level Indianapolis Center
04:29PM 36.8764 -86.0142 225° Southwest 149 171 6,100  Level Indianapolis Center
04:30PM 36.8464 -86.0514 225° Southwest 151 174 6,100  Level Indianapolis Center
04:31PM 36.8178 -86.0911 228° Southwest 151 174 6,100  Level Indianapolis Center
04:32PM 36.7869 -86.1272 223° Southwest 151 174 6,100  Level Indianapolis Center
04:33PM 36.7669 -86.1558 229° Southwest 156 180 6,100 -120 Level Memphis Center
04:34PM 36.7389 -86.1911 225° Southwest 156 180 6,000  Descending Memphis Center
04:35PM 36.7089 -86.2289 225° Southwest 156 180 6,100  Climbing Memphis Center
04:36PM 36.6789 -86.2642 223° Southwest 156 180 6,100 -60 Level Memphis Center
04:37PM 36.6489 -86.3044 227° Southwest 156 180 6,000  Descending Memphis Center
04:38PM 36.6189 -86.3419 225° Southwest 151 174 6,100 -120 Climbing Memphis Center
04:39PM 36.5931 -86.3847 233° Southwest 151 174 5,800 -420 Descending Memphis Center
04:40PM 36.5736 -86.4294 242° Southwest 156 180 5,300 -540 Descending Memphis Center
04:41PM 36.5522 -86.4769 241° Southwest 156 180 4,800 -600 Descending Memphis Center
04:42PM 36.5308 -86.5219 239° Southwest 156 180 4,100 -660 Descending Memphis Center
04:43PM 36.5094 -86.5722 242° Southwest 161 185 3,500 -540 Descending Memphis Center
04:44PM 36.4878 -86.6194 240° Southwest 161 185 3,100 -480 Descending Memphis Center
04:45PM 36.4664 -86.6644 239° Southwest 161 185 2,600 -300 Descending Memphis Center
04:46PM 36.4467 -86.7067 240° Southwest 161 185 2,500  Descending Memphis Center
04:47PM 36.4292 -86.7461 241° Southwest 161 185 2,600  Climbing Memphis Center
04:48PM 36.4000 -86.8167 243° Southwest 144 166 2,500  Descending Nashville TRACON
04:49PM 36.3667 -86.8667 230° Southwest 145 167 2,600 60 Climbing Nashville TRACON